createdAt,value
2023-01-12T00:01:58.953Z,7.88
2023-01-12T00:04:26.710Z,10.85
2023-01-12T00:06:55.776Z,8.32
2023-01-12T00:09:23.419Z,9.80
2023-01-12T00:11:51.065Z,6.50
2023-01-12T00:14:18.933Z,11.88
2023-01-12T00:16:46.691Z,7.95
2023-01-12T00:19:16.395Z,8.98
2023-01-12T00:21:59.293Z,11.50
2023-01-12T00:24:30.439Z,6.30
2023-01-12T00:27:00.169Z,8.38
2023-01-12T00:29:28.750Z,8.88
2023-01-12T00:32:00.781Z,7.05
2023-01-12T00:34:31.081Z,5.13
2023-01-12T00:37:01.427Z,6.55
2023-01-12T00:43:34.716Z,3.15
2023-01-12T00:46:02.500Z,5.75
2023-01-12T00:48:31.067Z,5.82
2023-01-12T00:50:58.728Z,5.50
2023-01-12T00:53:26.404Z,8.50
2023-01-12T00:55:54.072Z,3.13
2023-01-12T00:58:23.055Z,8.25
2023-01-12T01:00:50.739Z,6.38
2023-01-12T01:03:18.545Z,8.73
2023-01-12T01:05:51.012Z,7.88
2023-01-12T01:08:18.888Z,10.20
2023-01-12T01:10:46.708Z,6.90
2023-01-12T01:13:14.339Z,7.28
2023-01-12T01:15:43.423Z,7.40
2023-01-12T01:18:11.107Z,12.25
2023-01-12T01:20:38.973Z,12.15
2023-01-12T01:23:06.634Z,7.88
2023-01-12T01:25:34.297Z,11.02
2023-01-12T01:28:02.056Z,13.32
2023-01-12T01:30:29.690Z,10.13
2023-01-12T01:32:58.741Z,9.50
2023-01-12T01:35:26.419Z,6.72
2023-01-12T01:37:54.105Z,7.32
2023-01-12T01:40:24.198Z,12.65
2023-01-12T01:42:51.949Z,10.60
2023-01-12T01:45:19.702Z,8.70
2023-01-12T01:47:51.189Z,8.23
2023-01-12T01:50:26.139Z,8.18
2023-01-12T01:52:59.687Z,7.75
2023-01-12T01:55:33.950Z,9.18
2023-01-12T01:58:05.545Z,5.65
2023-01-12T02:00:33.301Z,7.25
2023-01-12T02:03:02.977Z,11.43
2023-01-12T02:05:32.105Z,10.27
2023-01-12T02:08:05.931Z,6.07
2023-01-12T02:10:33.751Z,9.07
2023-01-12T02:13:19.045Z,8.65
2023-01-12T02:16:20.344Z,14.65
2023-01-12T02:18:56.510Z,9.10
2023-01-12T02:22:08.933Z,9.70
2023-01-12T02:24:57.753Z,8.85
2023-01-12T02:27:40.285Z,5.18
2023-01-12T02:30:47.506Z,5.45
2023-01-12T02:33:31.565Z,8.40
2023-01-12T02:36:06.630Z,6.97
2023-01-12T02:38:39.117Z,5.95
2023-01-12T02:41:19.633Z,8.88
2023-01-12T02:43:46.481Z,9.27
2023-01-12T02:48:52.676Z,9.43
2023-01-12T02:51:28.256Z,8.65
2023-01-12T02:54:01.289Z,7.13
2023-01-12T02:56:33.088Z,8.93
2023-01-12T02:59:05.819Z,8.95
2023-01-12T03:01:34.704Z,7.30
2023-01-12T03:04:07.201Z,8.75
2023-01-12T03:06:41.489Z,6.20
2023-01-12T03:09:09.689Z,6.97
2023-01-12T03:11:39.889Z,6.18
2023-01-12T03:14:08.754Z,8.85
2023-01-12T03:16:37.991Z,6.22
2023-01-12T03:19:11.647Z,6.35
2023-01-12T03:21:42.897Z,7.15
2023-01-12T03:24:13.989Z,8.20
2023-01-12T03:26:45.324Z,6.53
2023-01-12T03:29:17.825Z,10.68
2023-01-12T03:31:45.985Z,7.50
2023-01-12T03:34:15.436Z,8.55
2023-01-12T03:36:50.457Z,4.72
2023-01-12T03:39:27.592Z,9.85
2023-01-12T03:42:02.192Z,6.13
2023-01-12T03:44:39.517Z,8.23
2023-01-12T03:47:14.425Z,10.57
2023-01-12T03:49:47.044Z,12.55
2023-01-12T03:52:16.758Z,7.25
2023-01-12T03:54:48.218Z,9.98
2023-01-12T03:57:16.879Z,11.27
2023-01-12T03:59:44.904Z,13.63
2023-01-12T04:02:13.452Z,8.02
2023-01-12T04:04:41.524Z,8.77
2023-01-12T04:07:10.695Z,7.15
2023-01-12T04:09:38.481Z,11.70
2023-01-12T04:12:12.645Z,8.57
2023-01-12T04:14:41.473Z,10.88
2023-01-12T04:17:10.321Z,10.70
2023-01-12T04:19:38.347Z,14.90
2023-01-12T04:22:23.719Z,8.18
2023-01-12T04:24:52.869Z,16.83
2023-01-12T04:27:20.625Z,10.10
2023-01-12T04:29:48.357Z,11.27
2023-01-12T04:32:16.084Z,9.27
2023-01-12T04:34:43.894Z,15.45
2023-01-12T04:37:11.577Z,10.88
2023-01-12T04:39:39.492Z,10.70
2023-01-12T04:42:28.898Z,5.90
2023-01-12T04:44:56.630Z,12.40
2023-01-12T04:47:24.285Z,13.40
2023-01-12T04:49:51.997Z,9.60
2023-01-12T04:52:19.694Z,9.50
2023-01-12T04:54:47.394Z,10.60
2023-01-12T04:57:16.507Z,10.48
2023-01-12T04:59:44.193Z,4.30
2023-01-12T05:02:12.179Z,11.35
2023-01-12T05:04:39.916Z,8.20
2023-01-12T05:07:07.722Z,7.82
2023-01-12T05:09:53.068Z,3.35
2023-01-12T05:12:22.183Z,8.27
2023-01-12T05:14:50.026Z,7.15
2023-01-12T05:17:17.832Z,5.55
2023-01-12T05:19:45.561Z,6.63
2023-01-12T05:22:13.242Z,6.20
2023-01-12T05:24:40.927Z,4.22
2023-01-12T05:27:08.673Z,4.60
2023-01-12T05:29:37.826Z,5.13
2023-01-12T05:32:05.792Z,5.55
2023-01-12T05:34:33.580Z,3.15
2023-01-12T05:37:01.338Z,2.30
2023-01-12T05:39:29.055Z,4.32
2023-01-12T05:42:14.283Z,3.38
2023-01-12T05:44:43.310Z,3.60
2023-01-12T05:47:11.014Z,5.00
2023-01-12T05:49:38.708Z,5.15
2023-01-12T05:52:06.489Z,3.58
2023-01-12T05:54:34.227Z,5.00
2023-01-12T05:57:01.971Z,2.78
2023-01-12T05:59:29.648Z,2.50
2023-01-12T06:01:58.717Z,2.45
2023-01-12T06:04:26.599Z,3.47
2023-01-12T06:06:54.317Z,4.45
2023-01-12T06:09:22.001Z,3.88
2023-01-12T06:12:07.070Z,3.92
2023-01-12T06:14:35.443Z,2.83
2023-01-12T06:17:04.570Z,3.15
2023-01-12T06:19:32.274Z,4.78
2023-01-12T06:22:00.326Z,2.80
2023-01-12T06:24:29.073Z,5.03
2023-01-12T06:26:56.995Z,2.65
2023-01-12T06:29:24.685Z,5.53
2023-01-12T06:31:52.412Z,3.20
2023-01-12T06:34:21.579Z,3.25
2023-01-12T06:36:49.961Z,3.70
2023-01-12T06:39:17.747Z,1.98
2023-01-12T06:42:02.845Z,2.15
2023-01-12T06:44:30.507Z,3.13
2023-01-12T06:46:58.238Z,4.43
2023-01-12T06:49:27.244Z,1.10
2023-01-12T06:51:54.945Z,2.55
2023-01-12T06:54:22.837Z,2.58
2023-01-12T06:56:50.525Z,0.88
2023-01-12T06:59:18.284Z,2.90
2023-01-12T07:01:46.050Z,1.80
2023-01-12T07:04:13.907Z,2.00
2023-01-12T07:06:43.069Z,0.70
2023-01-12T07:09:10.754Z,1.83
2023-01-12T07:11:38.478Z,0.90
2023-01-12T07:14:08.420Z,1.60
2023-01-12T07:16:36.953Z,1.15
2023-01-12T07:19:04.764Z,1.05
2023-01-12T07:21:32.477Z,2.45
2023-01-12T07:24:01.737Z,2.30
2023-01-12T07:26:29.387Z,1.83
2023-01-12T07:28:57.303Z,0.70
2023-01-12T07:31:25.028Z,1.35
2023-01-12T07:33:53.413Z,3.50
2023-01-12T07:36:21.288Z,3.67
2023-01-12T07:38:49.038Z,1.13
2023-01-12T07:41:35.443Z,0.65
2023-01-12T07:44:09.711Z,2.90
2023-01-12T07:46:37.607Z,2.45
2023-01-12T07:49:05.341Z,0.50
2023-01-12T07:51:33.139Z,1.80
2023-01-12T07:54:00.895Z,1.08
2023-01-12T07:56:29.995Z,0.52
2023-01-12T07:58:57.784Z,1.25
2023-01-12T08:01:25.886Z,1.08
2023-01-12T08:03:53.697Z,2.13
2023-01-12T08:06:21.383Z,0.43
2023-01-12T08:08:49.144Z,2.55
2023-01-12T08:11:16.905Z,2.45
2023-01-12T08:13:45.933Z,1.08
2023-01-12T08:16:17.410Z,1.08
2023-01-12T08:18:48.696Z,1.85
2023-01-12T08:21:21.168Z,0.52
2023-01-12T08:23:52.760Z,2.20
2023-01-12T08:26:25.713Z,1.77
2023-01-12T08:29:00.647Z,3.60
2023-01-12T08:31:28.458Z,2.38
2023-01-12T08:33:56.672Z,0.57
2023-01-12T08:36:25.593Z,1.55
2023-01-12T08:38:53.397Z,1.05
2023-01-12T08:41:37.727Z,2.03
2023-01-12T08:44:10.035Z,3.20
2023-01-12T08:46:39.394Z,1.20
2023-01-12T08:49:11.183Z,2.35
2023-01-12T08:51:40.318Z,1.88
2023-01-12T08:54:08.909Z,1.50
2023-01-12T08:56:36.909Z,2.40
2023-01-12T08:59:06.944Z,1.95
2023-01-12T09:01:35.047Z,3.40
2023-01-12T09:04:03.416Z,2.08
2023-01-12T09:06:37.117Z,2.45
2023-01-12T09:09:06.559Z,2.13
2023-01-12T09:11:35.184Z,1.55
2023-01-12T09:14:02.993Z,2.20
2023-01-12T09:16:33.545Z,1.77
2023-01-12T09:19:02.020Z,2.22
2023-01-12T09:21:31.564Z,3.15
2023-01-12T09:23:59.751Z,1.50
2023-01-12T09:26:31.696Z,2.83
2023-01-12T09:28:59.870Z,3.90
2023-01-12T09:31:29.223Z,3.45
2023-01-12T09:33:58.957Z,4.10
2023-01-12T09:36:28.743Z,4.97
2023-01-12T09:38:57.209Z,2.92
2023-01-12T09:41:45.590Z,3.13
2023-01-12T09:44:36.232Z,1.92
2023-01-12T09:47:06.227Z,4.93
2023-01-12T09:49:42.797Z,3.63
2023-01-12T09:54:42.729Z,3.30
2023-01-12T09:57:28.576Z,5.18
2023-01-12T10:00:02.799Z,5.10
2023-01-12T10:02:43.168Z,6.03
2023-01-12T10:05:19.908Z,4.32
2023-01-12T10:07:48.915Z,4.05
2023-01-12T10:10:16.776Z,3.63
2023-01-12T10:12:50.867Z,4.30
2023-01-12T10:15:30.712Z,9.55
2023-01-12T10:18:04.963Z,3.72
2023-01-12T10:20:38.863Z,4.25
2023-01-12T10:23:16.747Z,5.18
2023-01-12T10:25:47.492Z,4.78
2023-01-12T10:28:26.420Z,4.32
2023-01-12T10:30:56.518Z,5.00
2023-01-12T10:33:26.367Z,5.75
2023-01-12T10:36:01.799Z,6.03
2023-01-12T10:38:35.380Z,4.10
2023-01-12T10:41:06.035Z,5.57
2023-01-12T10:43:34.892Z,3.33
2023-01-12T10:46:10.394Z,4.25
2023-01-12T10:48:39.959Z,3.55
2023-01-12T10:51:20.947Z,2.72
2023-01-12T10:53:52.187Z,3.00
2023-01-12T10:56:28.780Z,4.38
2023-01-12T11:01:26.843Z,4.68
2023-01-12T11:04:05.728Z,4.95
2023-01-12T11:06:34.867Z,3.42
2023-01-12T11:09:19.449Z,2.40
2023-01-12T11:11:47.267Z,5.38
2023-01-12T11:14:25.137Z,5.28
2023-01-12T11:16:52.954Z,4.32
2023-01-12T11:19:26.116Z,3.72
2023-01-12T11:21:58.842Z,4.55
2023-01-12T11:24:36.682Z,4.35
2023-01-12T11:27:13.940Z,4.97
2023-01-12T11:29:54.462Z,3.13
2023-01-12T11:32:32.135Z,6.28
2023-01-12T11:35:04.858Z,5.50
2023-01-12T11:37:39.274Z,4.57
2023-01-12T11:40:18.140Z,4.90
2023-01-12T11:43:05.198Z,4.85
2023-01-12T11:45:43.205Z,2.80
2023-01-12T11:48:22.674Z,5.10
2023-01-12T11:50:53.379Z,4.35
2023-01-12T11:53:25.531Z,3.92
2023-01-12T11:56:12.206Z,3.80
2023-01-12T11:58:52.669Z,3.72
2023-01-12T12:01:29.059Z,5.18
2023-01-12T12:04:04.077Z,5.78
2023-01-12T12:06:56.223Z,3.55
2023-01-12T12:09:44.171Z,2.63
2023-01-12T12:12:21.053Z,2.83
2023-01-12T12:15:04.660Z,3.28
2023-01-12T12:17:45.873Z,5.07
2023-01-12T12:20:23.662Z,4.20
2023-01-12T12:23:04.545Z,3.25
2023-01-12T12:25:44.665Z,3.75
2023-01-12T12:28:48.934Z,2.20
2023-01-12T12:31:34.205Z,3.15
2023-01-12T12:34:26.349Z,3.35
2023-01-12T12:37:00.887Z,3.45
2023-01-12T12:39:36.422Z,2.55
2023-01-12T12:42:37.560Z,2.13
2023-01-12T12:45:22.314Z,4.20
2023-01-12T12:48:08.244Z,2.95
2023-01-12T12:50:41.401Z,2.85
2023-01-12T12:53:28.285Z,3.22
2023-01-12T12:56:00.099Z,2.90
2023-01-12T12:58:38.844Z,4.07
2023-01-12T13:01:42.597Z,7.85
2023-01-12T13:04:14.912Z,2.85
2023-01-12T13:06:49.191Z,3.08
2023-01-12T13:09:39.930Z,3.45
2023-01-12T13:12:21.277Z,3.38
2023-01-12T13:15:24.640Z,2.30
2023-01-12T13:17:55.330Z,2.80
2023-01-12T13:20:51.537Z,2.55
2023-01-12T13:23:45.143Z,2.00
2023-01-12T13:26:46.255Z,3.67
2023-01-12T13:29:42.476Z,2.83
2023-01-12T13:32:50.596Z,3.58
2023-01-12T13:35:28.585Z,3.33
2023-01-12T13:38:02.643Z,2.33
2023-01-12T13:40:32.226Z,1.60
2023-01-12T13:43:19.542Z,2.45
2023-01-12T13:45:53.294Z,1.67
2023-01-12T13:48:22.021Z,1.60
2023-01-12T13:50:53.279Z,2.10
2023-01-12T13:53:24.256Z,1.83
2023-01-12T13:56:00.536Z,1.80
2023-01-12T13:58:29.559Z,2.25
2023-01-12T14:00:59.823Z,1.70
2023-01-12T14:03:41.050Z,2.80
2023-01-12T14:06:19.526Z,1.50
2023-01-12T14:08:56.007Z,1.70
2023-01-12T14:11:39.182Z,1.50
2023-01-12T14:14:57.819Z,1.50
2023-01-12T14:17:51.764Z,1.85
2023-01-12T14:20:22.129Z,2.03
2023-01-12T14:23:06.452Z,1.60
2023-01-12T14:25:34.211Z,1.65
2023-01-12T14:28:01.872Z,1.52
2023-01-12T14:30:30.209Z,3.80
2023-01-12T14:32:58.129Z,4.40
2023-01-12T14:35:28.160Z,3.47
2023-01-12T14:37:59.108Z,3.35
2023-01-12T14:40:30.171Z,3.00
2023-01-12T14:43:16.189Z,2.05
2023-01-12T14:46:15.838Z,2.65
2023-01-12T14:48:44.613Z,2.97
2023-01-12T14:51:22.127Z,3.42
2023-01-12T14:53:57.510Z,2.17
2023-01-12T14:56:27.940Z,1.98
2023-01-12T14:59:06.115Z,3.05
2023-01-12T15:01:37.054Z,3.72
2023-01-12T15:04:06.110Z,2.20
2023-01-12T15:06:40.568Z,2.80
2023-01-12T15:09:25.781Z,3.35
2023-01-12T15:11:53.740Z,2.03
2023-01-12T15:14:25.899Z,2.25
2023-01-12T15:17:11.954Z,3.75
2023-01-12T15:19:57.268Z,3.95
2023-01-12T15:22:45.688Z,3.20
2023-01-12T15:25:34.123Z,1.58
2023-01-12T15:28:02.354Z,1.95
2023-01-12T15:30:30.880Z,1.40
2023-01-12T15:32:58.768Z,2.17
2023-01-12T15:35:29.898Z,1.80
2023-01-12T15:37:59.503Z,4.22
2023-01-12T15:40:29.956Z,3.40
2023-01-12T15:42:59.020Z,3.05
2023-01-12T15:45:35.032Z,3.25
2023-01-12T15:48:02.810Z,1.83
2023-01-12T15:50:31.267Z,1.95
2023-01-12T15:53:01.039Z,3.00
2023-01-12T15:55:31.219Z,2.97
2023-01-12T15:57:59.000Z,2.45
2023-01-12T16:00:26.826Z,3.35
2023-01-12T16:02:54.559Z,3.75
2023-01-12T16:05:23.800Z,3.75
2023-01-12T16:07:51.607Z,4.25
2023-01-12T16:10:19.812Z,3.20
2023-01-12T16:12:49.107Z,3.42
2023-01-12T16:15:18.829Z,5.35
2023-01-12T16:17:46.673Z,6.70
2023-01-12T16:20:16.583Z,4.75
2023-01-12T16:22:45.396Z,3.75
2023-01-12T16:25:13.604Z,5.50
2023-01-12T16:27:41.479Z,3.22
2023-01-12T16:30:14.314Z,5.20
2023-01-12T16:32:46.122Z,5.75
2023-01-12T16:35:15.211Z,3.58
2023-01-12T16:37:42.894Z,3.53
2023-01-12T16:40:12.142Z,2.47
2023-01-12T16:42:39.854Z,2.83
2023-01-12T16:45:08.417Z,3.75
2023-01-12T16:47:37.452Z,4.38
2023-01-12T16:50:05.818Z,3.50
2023-01-12T16:52:33.521Z,3.03
2023-01-12T16:55:01.306Z,5.40
2023-01-12T16:57:28.992Z,3.75
2023-01-12T16:59:56.727Z,3.28
2023-01-12T17:02:24.741Z,3.25
2023-01-12T17:04:54.598Z,4.85
2023-01-12T17:07:22.476Z,2.88
2023-01-12T17:09:50.195Z,3.58
2023-01-12T17:12:18.435Z,4.47
2023-01-12T17:14:46.419Z,3.13
2023-01-12T17:17:14.271Z,3.35
2023-01-12T17:19:43.859Z,2.60
2023-01-12T17:22:13.376Z,2.72
2023-01-12T17:24:41.752Z,3.00
2023-01-12T17:27:11.054Z,2.92
2023-01-12T17:29:38.877Z,2.08
2023-01-12T17:32:08.126Z,2.58
2023-01-12T17:34:38.976Z,2.75
2023-01-12T17:37:08.331Z,3.03
2023-01-12T17:39:39.894Z,3.33
2023-01-12T17:42:25.947Z,2.70
2023-01-12T17:44:53.623Z,2.38
2023-01-12T17:47:21.409Z,4.35
2023-01-12T17:49:49.119Z,3.15
2023-01-12T17:52:17.498Z,3.00
2023-01-12T17:54:46.617Z,2.30
2023-01-12T17:57:14.405Z,4.70
2023-01-12T17:59:42.212Z,2.05
2023-01-12T18:02:11.832Z,2.20
2023-01-12T18:04:39.574Z,2.10
2023-01-12T18:07:07.354Z,2.63
2023-01-12T18:09:36.707Z,2.70
2023-01-12T18:12:06.409Z,2.22
2023-01-12T18:14:34.891Z,2.75
2023-01-12T18:17:02.608Z,2.90
2023-01-12T18:19:30.745Z,3.88
2023-01-12T18:21:58.438Z,2.90
2023-01-12T18:24:26.196Z,2.55
2023-01-12T18:26:53.850Z,4.10
2023-01-12T18:29:22.955Z,3.05
2023-01-12T18:31:50.643Z,2.67
2023-01-12T18:34:19.163Z,2.95
2023-01-12T18:36:47.182Z,2.92
2023-01-12T18:39:17.592Z,3.08
2023-01-12T18:42:03.268Z,2.28
2023-01-12T18:44:33.160Z,3.28
2023-01-12T18:47:19.540Z,2.60
2023-01-12T18:49:48.339Z,4.50
2023-01-12T18:52:34.555Z,2.78
2023-01-12T18:55:02.378Z,3.55
2023-01-12T18:57:32.881Z,2.17
2023-01-12T19:00:12.688Z,2.28
2023-01-12T19:02:40.600Z,10.45
2023-01-12T19:05:19.881Z,3.17
2023-01-12T19:08:26.271Z,2.75
2023-01-12T19:10:54.086Z,2.10
2023-01-12T19:13:39.263Z,6.63
2023-01-12T19:16:28.748Z,3.33
2023-01-12T19:18:56.433Z,2.10
2023-01-12T19:21:41.954Z,2.28
2023-01-12T19:24:29.245Z,1.70
2023-01-12T19:27:14.452Z,2.70
2023-01-12T19:29:44.707Z,2.20
2023-01-12T19:32:13.978Z,2.10
2023-01-12T19:34:41.752Z,2.10
2023-01-12T19:37:09.619Z,2.33
2023-01-12T19:39:59.686Z,2.28
2023-01-12T19:42:45.759Z,2.00
2023-01-12T19:45:13.667Z,2.53
2023-01-12T19:47:42.772Z,2.42
2023-01-12T19:50:12.391Z,2.47
2023-01-12T19:52:41.223Z,3.05
2023-01-12T19:55:11.815Z,2.80
2023-01-12T19:57:40.219Z,3.05
2023-01-12T20:00:12.890Z,3.90
2023-01-12T20:02:43.263Z,2.90
2023-01-12T20:05:13.451Z,3.42
2023-01-12T20:07:41.471Z,3.60
2023-01-12T20:10:10.354Z,5.03
2023-01-12T20:12:38.261Z,2.63
2023-01-12T20:15:07.047Z,3.70
2023-01-12T20:17:35.874Z,4.18
2023-01-12T20:20:08.316Z,3.85
2023-01-12T20:22:36.527Z,4.78
2023-01-12T20:25:05.099Z,3.25
2023-01-12T20:27:34.307Z,3.72
2023-01-12T20:30:02.570Z,5.15
2023-01-12T20:32:31.527Z,3.92
2023-01-12T20:34:59.729Z,4.68
2023-01-12T20:37:28.912Z,4.47
2023-01-12T20:39:57.497Z,3.40
2023-01-12T20:42:25.755Z,4.53
2023-01-12T20:44:54.711Z,3.65
2023-01-12T20:47:22.612Z,6.70
2023-01-12T20:49:50.343Z,4.40
2023-01-12T20:52:18.112Z,3.88
2023-01-12T20:54:48.077Z,4.85
2023-01-12T20:57:16.554Z,3.72
2023-01-12T20:59:44.556Z,3.75
2023-01-12T21:02:17.875Z,2.53
2023-01-12T21:04:45.611Z,3.70
2023-01-12T21:07:13.727Z,2.40
2023-01-12T21:09:42.153Z,2.55
2023-01-12T21:12:11.608Z,2.90
2023-01-12T21:14:39.490Z,4.35
2023-01-12T21:17:07.844Z,2.97
2023-01-12T21:19:35.827Z,2.58
2023-01-12T21:22:04.113Z,3.55
2023-01-12T21:24:32.113Z,2.38
2023-01-12T21:26:59.834Z,2.60
2023-01-12T21:29:28.925Z,3.72
2023-01-12T21:31:56.671Z,2.65
2023-01-12T21:34:24.504Z,6.05
2023-01-12T21:36:52.520Z,3.22
2023-01-12T21:39:20.435Z,2.40
2023-01-12T21:42:06.029Z,3.42
2023-01-12T21:44:35.453Z,3.38
2023-01-12T21:47:03.152Z,2.97
2023-01-12T21:49:30.890Z,2.22
2023-01-12T21:51:58.581Z,2.67
2023-01-12T21:54:26.429Z,2.10
2023-01-12T21:56:54.234Z,2.53
2023-01-12T21:59:22.022Z,3.45
2023-01-12T22:01:51.187Z,3.58
2023-01-12T22:04:19.083Z,4.50
2023-01-12T22:06:46.796Z,3.75
2023-01-12T22:09:14.616Z,4.75
2023-01-12T22:11:42.328Z,3.25
2023-01-12T22:14:10.209Z,4.57
2023-01-12T22:16:38.094Z,2.55
2023-01-12T22:19:07.135Z,4.07
2023-01-12T22:21:34.847Z,2.83
2023-01-12T22:24:03.813Z,2.38
2023-01-12T22:26:32.571Z,3.08
2023-01-12T22:29:00.549Z,3.30
2023-01-12T22:31:28.979Z,2.72
2023-01-12T22:34:04.725Z,3.92
2023-01-12T22:36:37.003Z,6.38
2023-01-12T22:39:05.488Z,4.93
2023-01-12T22:41:33.159Z,3.72
2023-01-12T22:44:00.914Z,3.13
2023-01-12T22:46:29.375Z,4.68
2023-01-12T22:48:59.256Z,5.30
2023-01-12T22:51:29.289Z,4.85
2023-01-12T22:53:58.659Z,8.80
2023-01-12T22:56:26.952Z,7.97
2023-01-12T22:58:56.534Z,4.63
2023-01-12T23:01:25.870Z,4.82
2023-01-12T23:03:54.243Z,3.60
2023-01-12T23:06:23.260Z,4.75
2023-01-12T23:08:53.005Z,3.97
2023-01-12T23:11:24.314Z,8.98
2023-01-12T23:13:52.632Z,5.40
2023-01-12T23:16:20.579Z,4.18
2023-01-12T23:18:49.843Z,5.05
2023-01-12T23:21:20.195Z,4.55
2023-01-12T23:23:49.708Z,3.30
2023-01-12T23:26:19.790Z,3.58
2023-01-12T23:28:50.961Z,4.80
2023-01-12T23:31:21.211Z,3.63
2023-01-12T23:33:49.321Z,4.05
2023-01-12T23:36:18.790Z,5.68
2023-01-12T23:38:47.010Z,5.40
2023-01-12T23:41:16.797Z,4.82
2023-01-12T23:43:44.743Z,4.72
2023-01-12T23:46:16.957Z,4.97
2023-01-12T23:48:44.988Z,5.07
2023-01-12T23:51:13.858Z,5.53
2023-01-12T23:53:41.744Z,5.28
2023-01-12T23:56:11.775Z,4.93
2023-01-12T23:58:39.835Z,4.18
